Time;durP1;ratioP1;P1;durP2;ratioP2;P2;SDS_P1;SDS_P2;PMS_P1;PMS_P2;Temp;Humidity;BMP_temperature;BMP_pressure;BME280_temperature;BME280_humidity;BME280_pressure;Samples;Min_cycle;Max_cycle;Signal;HPM_P1;HPM_P2
2021/11/06 00:00:16;;;;;;;22.05;12.02;;;;;;;;;;5076373;28;20036;-63
2021/11/06 00:02:41;;;;;;;19.38;12.27;;;;;;;;;;5076065;28;20036;-62
2021/11/06 00:05:07;;;;;;;22.20;12.75;;;;;;;;;;5057850;28;20031;-62
2021/11/06 00:07:33;;;;;;;20.80;12.05;;;;;;;;;;5075506;28;20387;-62
2021/11/06 00:09:59;;;;;;;19.65;12.88;;;;;;;;;;5057672;28;20024;-62
2021/11/06 00:12:25;;;;;;;20.58;12.55;;;;;;;;;;5075740;28;20028;-62
2021/11/06 00:14:50;;;;;;;20.15;12.15;;;;;;;;;;5057697;28;20024;-62
2021/11/06 00:17:16;;;;;;;19.90;12.18;;;;;;;;;;5074543;28;20119;-62
2021/11/06 00:19:41;;;;;;;18.08;11.50;;;;;;;;;;5075381;28;20033;-61
2021/11/06 00:22:08;;;;;;;18.15;11.75;;;;;;;;;;5075032;28;20041;-62
2021/11/06 00:24:33;;;;;;;18.45;11.48;;;;;;;;;;5074971;28;20032;-62
2021/11/06 00:26:59;;;;;;;17.70;11.35;;;;;;;;;;5075166;28;20032;-61
2021/11/06 00:29:24;;;;;;;16.23;10.82;;;;;;;;;;5074968;28;20032;-62
2021/11/06 00:31:50;;;;;;;17.45;11.05;;;;;;;;;;5074957;28;20044;-62
2021/11/06 00:34:15;;;;;;;17.05;11.10;;;;;;;;;;5075086;28;20163;-63
2021/11/06 00:36:40;;;;;;;17.33;11.63;;;;;;;;;;5074706;28;20068;-63
2021/11/06 00:39:06;;;;;;;18.75;11.05;;;;;;;;;;5075067;28;20408;-63
2021/11/06 00:41:32;;;;;;;21.38;12.48;;;;;;;;;;5057452;28;20040;-63
2021/11/06 00:43:58;;;;;;;20.35;12.07;;;;;;;;;;5056962;28;20391;-63
2021/11/06 00:46:23;;;;;;;21.10;12.40;;;;;;;;;;5057131;28;20052;-63
2021/11/06 00:48:49;;;;;;;21.27;12.43;;;;;;;;;;5074722;28;20439;-63
2021/11/06 00:51:14;;;;;;;21.83;13.00;;;;;;;;;;5075033;28;20032;-63
2021/11/06 00:53:40;;;;;;;20.27;12.82;;;;;;;;;;5074734;28;20025;-63
2021/11/06 00:56:05;;;;;;;21.20;12.25;;;;;;;;;;5074844;28;20102;-63
2021/11/06 00:58:31;;;;;;;22.40;12.30;;;;;;;;;;5074710;28;20032;-62
2021/11/06 01:00:56;;;;;;;22.38;13.50;;;;;;;;;;5074662;28;20043;-62
2021/11/06 01:03:23;;;;;;;23.42;13.70;;;;;;;;;;5074537;28;20028;-62
2021/11/06 01:05:48;;;;;;;23.67;13.32;;;;;;;;;;5056510;28;20388;-62
2021/11/06 01:08:14;;;;;;;19.20;12.55;;;;;;;;;;5074595;28;20032;-62
2021/11/06 01:10:39;;;;;;;21.63;13.57;;;;;;;;;;5056346;28;20086;-62
2021/11/06 01:13:05;;;;;;;23.40;13.15;;;;;;;;;;5056332;28;20025;-62
2021/11/06 01:15:30;;;;;;;21.73;13.25;;;;;;;;;;5056511;28;20070;-62
2021/11/06 01:17:56;;;;;;;23.55;12.43;;;;;;;;;;5074249;28;20468;-62
2021/11/06 01:20:27;;;;;;;23.27;13.57;;;;;;;;;;5074049;28;20033;-62
2021/11/06 01:22:58;;;;;;;25.90;13.02;;;;;;;;;;5073994;28;20174;-62
2021/11/06 01:25:23;;;;;;;20.20;11.98;;;;;;;;;;5074170;28;20103;-62
2021/11/06 01:27:49;;;;;;;19.17;11.52;;;;;;;;;;5074168;28;20040;-62
2021/11/06 01:30:21;;;;;;;21.85;11.95;;;;;;;;;;5073990;28;20457;-63
2021/11/06 01:32:49;;;;;;;22.33;11.52;;;;;;;;;;5073978;28;20047;-62
2021/11/06 01:35:15;;;;;;;22.45;13.07;;;;;;;;;;5074069;28;20027;-61
2021/11/06 01:37:41;;;;;;;18.85;11.23;;;;;;;;;;5055555;28;20131;-61
2021/11/06 01:40:08;;;;;;;21.65;12.23;;;;;;;;;;5073657;28;20064;-62
2021/11/06 01:42:33;;;;;;;22.60;13.05;;;;;;;;;;5073801;28;20123;-61
2021/11/06 01:44:59;;;;;;;21.60;12.75;;;;;;;;;;5073731;28;20104;-61
2021/11/06 01:47:25;;;;;;;22.33;12.57;;;;;;;;;;5073759;28;20036;-61
2021/11/06 01:49:59;;;;;;;22.33;12.07;;;;;;;;;;5073533;28;20033;-61
2021/11/06 01:52:37;;;;;;;22.42;11.88;;;;;;;;;;5049643;28;20097;-61
2021/11/06 01:55:10;;;;;;;22.52;12.82;;;;;;;;;;5073382;28;20562;-61
2021/11/06 01:57:46;;;;;;;20.13;11.80;;;;;;;;;;5051055;28;20135;-61
2021/11/06 02:00:55;;;;;;;21.60;12.30;;;;;;;;;;5073251;28;20041;-61
2021/11/06 02:03:47;;;;;;;19.25;11.65;;;;;;;;;;5054189;28;20040;-61
2021/11/06 02:07:07;;;;;;;23.52;12.02;;;;;;;;;;5073832;28;20173;-61
2021/11/06 02:10:24;;;;;;;20.35;12.13;;;;;;;;;;5054949;28;20123;-62
2021/11/06 02:13:26;;;;;;;22.38;11.85;;;;;;;;;;5072604;28;20037;-62
2021/11/06 02:16:18;;;;;;;18.63;12.15;;;;;;;;;;5021648;28;20072;-61
2021/11/06 02:19:03;;;;;;;22.92;12.88;;;;;;;;;;5039408;28;20094;-61
2021/11/06 02:21:56;;;;;;;22.88;12.38;;;;;;;;;;5073592;28;20048;-61
2021/11/06 02:25:10;;;;;;;19.60;11.25;;;;;;;;;;5073171;28;20090;-61
2021/11/06 02:28:07;;;;;;;22.67;12.60;;;;;;;;;;5073402;28;20036;-61
2021/11/06 02:30:39;;;;;;;21.92;12.82;;;;;;;;;;5073498;28;20117;-61
2021/11/06 02:33:26;;;;;;;21.00;11.98;;;;;;;;;;5072306;28;20040;-62
2021/11/06 02:36:16;;;;;;;24.27;12.98;;;;;;;;;;5042998;28;20044;-62
2021/11/06 02:39:05;;;;;;;22.48;13.25;;;;;;;;;;5072223;28;20048;-61
2021/11/06 02:41:33;;;;;;;23.15;12.55;;;;;;;;;;5057178;28;20089;-62
2021/11/06 02:44:30;;;;;;;22.45;13.15;;;;;;;;;;5074047;28;20114;-62
2021/11/06 02:47:02;;;;;;;22.42;13.52;;;;;;;;;;5060342;28;20089;-61
2021/11/06 02:49:30;;;;;;;24.98;13.43;;;;;;;;;;5059778;28;20127;-61
2021/11/06 02:51:57;;;;;;;22.83;13.18;;;;;;;;;;5059255;28;20106;-62
2021/11/06 02:54:24;;;;;;;23.77;12.98;;;;;;;;;;5077089;28;20025;-63
2021/11/06 02:56:49;;;;;;;22.55;12.45;;;;;;;;;;5076808;28;20032;-63
2021/11/06 02:59:15;;;;;;;23.38;13.52;;;;;;;;;;5077199;28;20091;-63
2021/11/06 03:01:40;;;;;;;21.60;13.13;;;;;;;;;;5077220;28;20035;-63
2021/11/06 03:04:07;;;;;;;23.25;12.70;;;;;;;;;;5076857;28;20087;-63
2021/11/06 03:06:32;;;;;;;23.73;12.32;;;;;;;;;;5077075;28;20119;-63
2021/11/06 03:08:58;;;;;;;23.60;12.88;;;;;;;;;;5076506;28;20132;-63
2021/11/06 03:11:23;;;;;;;18.75;12.10;;;;;;;;;;5076975;28;20025;-63
2021/11/06 03:13:49;;;;;;;19.58;12.25;;;;;;;;;;5076510;28;20032;-62
2021/11/06 03:16:15;;;;;;;23.00;13.25;;;;;;;;;;5076479;28;20071;-63
2021/11/06 03:18:42;;;;;;;18.80;12.35;;;;;;;;;;5076713;28;20132;-63
2021/11/06 03:21:08;;;;;;;20.20;12.20;;;;;;;;;;5076797;28;20032;-63
2021/11/06 03:23:34;;;;;;;18.17;11.40;;;;;;;;;;5076455;28;20484;-63
2021/11/06 03:26:00;;;;;;;20.10;12.10;;;;;;;;;;5076489;28;20071;-63
2021/11/06 03:28:26;;;;;;;20.48;11.77;;;;;;;;;;5076562;28;20110;-63
2021/11/06 03:30:51;;;;;;;21.20;12.75;;;;;;;;;;5076682;28;20452;-63
2021/11/06 03:33:17;;;;;;;19.98;11.60;;;;;;;;;;5076562;28;20043;-63
2021/11/06 03:35:43;;;;;;;18.33;11.65;;;;;;;;;;5076199;28;20025;-63
2021/11/06 03:38:08;;;;;;;17.10;11.15;;;;;;;;;;5057939;28;20048;-63
2021/11/06 03:40:34;;;;;;;19.10;11.85;;;;;;;;;;5076687;28;20043;-63
2021/11/06 03:43:00;;;;;;;19.80;11.65;;;;;;;;;;5076537;28;20453;-63
2021/11/06 03:45:26;;;;;;;17.77;10.98;;;;;;;;;;5076234;28;20029;-63
2021/11/06 03:47:51;;;;;;;18.33;11.23;;;;;;;;;;5076334;28;20036;-64
2021/11/06 03:50:16;;;;;;;16.83;10.82;;;;;;;;;;5075860;28;20032;-64
2021/11/06 03:52:43;;;;;;;16.45;10.60;;;;;;;;;;5075793;28;20025;-64
2021/11/06 03:55:09;;;;;;;16.67;10.48;;;;;;;;;;5076078;28;20506;-63
2021/11/06 03:57:35;;;;;;;20.00;10.85;;;;;;;;;;5058498;28;20054;-63
2021/11/06 04:00:00;;;;;;;15.60;10.27;;;;;;;;;;5076356;28;20041;-64
2021/11/06 04:02:26;;;;;;;15.30;9.93;;;;;;;;;;5076016;28;20052;-63
2021/11/06 04:04:51;;;;;;;17.85;10.88;;;;;;;;;;5075302;28;20396;-64
2021/11/06 04:07:17;;;;;;;15.32;10.45;;;;;;;;;;5076251;28;20473;-63
2021/11/06 04:09:42;;;;;;;16.00;9.88;;;;;;;;;;5075605;28;20063;-63
2021/11/06 04:12:09;;;;;;;14.73;9.85;;;;;;;;;;5075753;28;20032;-63
2021/11/06 04:14:37;;;;;;;13.65;9.75;;;;;;;;;;5057832;28;20041;-63
2021/11/06 04:17:04;;;;;;;12.65;8.57;;;;;;;;;;5075410;28;20044;-63
2021/11/06 04:19:31;;;;;;;13.65;9.77;;;;;;;;;;5075484;28;20115;-63
2021/11/06 04:21:57;;;;;;;12.57;10.00;;;;;;;;;;5075749;28;20490;-63
2021/11/06 04:24:22;;;;;;;13.50;9.43;;;;;;;;;;5075642;28;20032;-63
2021/11/06 04:26:49;;;;;;;12.10;8.60;;;;;;;;;;5075611;28;20037;-63
2021/11/06 04:29:16;;;;;;;12.30;8.75;;;;;;;;;;5075342;28;20031;-63
2021/11/06 04:31:42;;;;;;;14.25;9.25;;;;;;;;;;5075463;28;20412;-63
2021/11/06 04:34:07;;;;;;;12.80;8.32;;;;;;;;;;5075292;28;20040;-64
2021/11/06 04:36:33;;;;;;;11.18;8.27;;;;;;;;;;5074821;28;20557;-65
2021/11/06 04:38:59;;;;;;;11.48;8.45;;;;;;;;;;5075088;28;20091;-63
2021/11/06 04:41:24;;;;;;;13.93;8.88;;;;;;;;;;5074801;28;20453;-64
2021/11/06 04:43:51;;;;;;;12.20;9.00;;;;;;;;;;5075069;28;20107;-64
2021/11/06 04:46:18;;;;;;;11.80;8.18;;;;;;;;;;5075031;28;20040;-63
2021/11/06 04:48:43;;;;;;;11.20;8.00;;;;;;;;;;5075091;28;20443;-63
2021/11/06 04:51:11;;;;;;;11.68;8.80;;;;;;;;;;5057021;28;20063;-62
2021/11/06 04:53:36;;;;;;;12.75;8.52;;;;;;;;;;5074785;28;20033;-62
2021/11/06 04:56:02;;;;;;;13.43;8.43;;;;;;;;;;5074909;28;20036;-62
2021/11/06 04:58:27;;;;;;;14.38;8.52;;;;;;;;;;5074477;28;20476;-63
2021/11/06 05:00:53;;;;;;;11.23;7.97;;;;;;;;;;5074625;28;20124;-63
2021/11/06 05:03:18;;;;;;;11.88;7.65;;;;;;;;;;5073926;28;20388;-63
2021/11/06 05:05:45;;;;;;;10.52;7.53;;;;;;;;;;5056731;28;20037;-63
2021/11/06 05:08:11;;;;;;;10.48;7.38;;;;;;;;;;5074722;28;20559;-63
2021/11/06 05:10:40;;;;;;;9.70;7.32;;;;;;;;;;5056895;28;20119;-64
2021/11/06 05:13:06;;;;;;;10.27;7.25;;;;;;;;;;5074462;28;20029;-63
2021/11/06 05:15:32;;;;;;;10.65;7.80;;;;;;;;;;5074754;28;20472;-63
2021/11/06 05:17:57;;;;;;;10.77;6.63;;;;;;;;;;5074525;28;20036;-63
2021/11/06 05:20:29;;;;;;;9.40;7.20;;;;;;;;;;5074615;28;20037;-63
2021/11/06 05:22:55;;;;;;;8.38;6.40;;;;;;;;;;5074116;28;20036;-63
2021/11/06 05:25:21;;;;;;;9.52;6.93;;;;;;;;;;5073789;28;20090;-62
2021/11/06 05:27:46;;;;;;;9.88;7.18;;;;;;;;;;5056048;28;20040;-62
2021/11/06 05:30:12;;;;;;;9.60;7.03;;;;;;;;;;5074113;28;20013;-62
2021/11/06 05:32:39;;;;;;;9.77;8.13;;;;;;;;;;5074021;28;20047;-62
2021/11/06 05:35:07;;;;;;;8.27;7.07;;;;;;;;;;5073924;28;20083;-61
2021/11/06 05:37:32;;;;;;;11.10;6.70;;;;;;;;;;5073282;28;20036;-61
2021/11/06 05:39:58;;;;;;;9.73;6.93;;;;;;;;;;5056116;28;20025;-62
2021/11/06 05:42:24;;;;;;;8.00;6.90;;;;;;;;;;5055772;28;20098;-62
2021/11/06 05:44:49;;;;;;;11.10;7.25;;;;;;;;;;5073577;28;20163;-62
2021/11/06 05:47:15;;;;;;;9.75;6.97;;;;;;;;;;5055830;28;20032;-62
2021/11/06 05:49:41;;;;;;;9.73;7.20;;;;;;;;;;5073530;28;20044;-62
2021/11/06 05:52:06;;;;;;;10.52;7.13;;;;;;;;;;5073029;28;20396;-62
2021/11/06 05:54:31;;;;;;;7.70;6.85;;;;;;;;;;5055830;28;20036;-62
2021/11/06 05:56:57;;;;;;;9.60;8.23;;;;;;;;;;5073724;28;20033;-62
2021/11/06 05:59:23;;;;;;;10.35;8.68;;;;;;;;;;5073380;28;20020;-62
2021/11/06 06:01:50;;;;;;;10.15;8.30;;;;;;;;;;5073192;28;20033;-62
2021/11/06 06:04:15;;;;;;;9.85;7.07;;;;;;;;;;5073171;28;20032;-61
2021/11/06 06:06:41;;;;;;;9.82;7.20;;;;;;;;;;5054979;28;20044;-61
2021/11/06 06:09:08;;;;;;;8.82;7.53;;;;;;;;;;5055111;28;20025;-63
2021/11/06 06:11:34;;;;;;;10.20;7.97;;;;;;;;;;5072974;28;20090;-63
2021/11/06 06:13:59;;;;;;;10.40;7.50;;;;;;;;;;5073274;28;20020;-63
2021/11/06 06:16:25;;;;;;;12.23;7.47;;;;;;;;;;5072124;28;20040;-63
2021/11/06 06:18:51;;;;;;;9.30;7.35;;;;;;;;;;5073016;28;20448;-63
2021/11/06 06:21:16;;;;;;;10.38;7.65;;;;;;;;;;5073090;28;20045;-63
2021/11/06 06:23:42;;;;;;;12.40;7.65;;;;;;;;;;5055585;28;20419;-62
2021/11/06 06:26:09;;;;;;;13.52;7.72;;;;;;;;;;5073180;28;20047;-63
2021/11/06 06:28:34;;;;;;;12.38;7.57;;;;;;;;;;5073268;28;20033;-63
2021/11/06 06:31:03;;;;;;;10.63;7.05;;;;;;;;;;5073355;28;20139;-63
2021/11/06 06:33:30;;;;;;;12.15;8.00;;;;;;;;;;5072493;28;20029;-62
2021/11/06 06:35:56;;;;;;;10.60;6.97;;;;;;;;;;5071953;28;20044;-69
2021/11/06 06:38:21;;;;;;;12.50;7.68;;;;;;;;;;5072372;28;20058;-62
2021/11/06 06:40:47;;;;;;;11.57;7.85;;;;;;;;;;5072796;28;20036;-62
2021/11/06 06:43:12;;;;;;;11.60;7.78;;;;;;;;;;5072672;28;20029;-62
2021/11/06 06:45:38;;;;;;;13.82;7.97;;;;;;;;;;5072394;28;20492;-60
2021/11/06 06:48:03;;;;;;;15.43;7.97;;;;;;;;;;5072509;28;20032;-60
2021/11/06 06:50:29;;;;;;;11.95;7.53;;;;;;;;;;5072577;28;20091;-59
2021/11/06 06:52:54;;;;;;;11.05;7.55;;;;;;;;;;5072468;28;20035;-59
2021/11/06 06:55:20;;;;;;;9.30;6.32;;;;;;;;;;5072657;28;20075;-59
2021/11/06 06:57:45;;;;;;;12.00;7.80;;;;;;;;;;5066060;28;20071;-59
2021/11/06 07:00:12;;;;;;;13.98;7.47;;;;;;;;;;5070874;28;20044;-59
2021/11/06 07:02:37;;;;;;;10.63;8.10;;;;;;;;;;5070380;28;20551;-59
2021/11/06 07:05:03;;;;;;;9.82;7.85;;;;;;;;;;5070158;28;20128;-59
2021/11/06 07:07:29;;;;;;;10.45;7.78;;;;;;;;;;5070518;28;20031;-59
2021/11/06 07:09:55;;;;;;;9.88;7.40;;;;;;;;;;5070034;28;20036;-59
2021/11/06 07:12:22;;;;;;;12.68;7.57;;;;;;;;;;5070894;28;20028;-62
2021/11/06 07:14:48;;;;;;;10.23;7.43;;;;;;;;;;5053683;28;20064;-62
2021/11/06 07:17:14;;;;;;;12.55;8.43;;;;;;;;;;5071509;28;20056;-62
2021/11/06 07:19:41;;;;;;;11.05;8.02;;;;;;;;;;5071025;28;20044;-63
2021/11/06 07:22:08;;;;;;;10.35;8.02;;;;;;;;;;5069987;28;20059;-63
2021/11/06 07:24:36;;;;;;;9.70;7.32;;;;;;;;;;5069931;28;20350;-63
2021/11/06 07:27:03;;;;;;;12.38;8.82;;;;;;;;;;5052913;28;20074;-63
2021/11/06 07:29:28;;;;;;;12.30;8.30;;;;;;;;;;5055828;28;20028;-63
2021/11/06 07:31:54;;;;;;;11.15;7.75;;;;;;;;;;5073755;28;20459;-62
2021/11/06 07:34:19;;;;;;;8.70;7.72;;;;;;;;;;5055418;28;20395;-63
2021/11/06 07:36:45;;;;;;;10.63;6.85;;;;;;;;;;5072682;28;20044;-63
2021/11/06 07:39:11;;;;;;;13.40;8.82;;;;;;;;;;5073209;28;20078;-63
2021/11/06 07:41:37;;;;;;;11.20;8.82;;;;;;;;;;5054939;28;20049;-63
2021/11/06 07:44:03;;;;;;;12.85;7.63;;;;;;;;;;5054568;28;20045;-63
2021/11/06 07:46:29;;;;;;;12.43;7.68;;;;;;;;;;5073102;28;20097;-63
2021/11/06 07:48:55;;;;;;;12.85;8.40;;;;;;;;;;5072902;28;20040;-63
2021/11/06 07:51:20;;;;;;;13.73;7.70;;;;;;;;;;5072773;28;20518;-63
2021/11/06 07:53:46;;;;;;;11.10;7.95;;;;;;;;;;5072746;28;20654;-63
2021/11/06 07:56:13;;;;;;;9.43;6.55;;;;;;;;;;5072291;28;20031;-63
2021/11/06 07:58:39;;;;;;;12.18;8.05;;;;;;;;;;5072801;28;20047;-63
2021/11/06 08:01:04;;;;;;;10.90;7.78;;;;;;;;;;5054997;28;20044;-63
2021/11/06 08:03:31;;;;;;;11.23;8.52;;;;;;;;;;5072854;28;20048;-63
2021/11/06 08:05:57;;;;;;;7.63;5.53;;;;;;;;;;5072539;28;20122;-63
2021/11/06 08:08:22;;;;;;;12.98;8.35;;;;;;;;;;5054264;28;20067;-63
2021/11/06 08:10:48;;;;;;;13.35;8.23;;;;;;;;;;5073098;28;20047;-63
2021/11/06 08:13:14;;;;;;;11.43;7.50;;;;;;;;;;5072732;28;20125;-63
2021/11/06 08:15:40;;;;;;;9.52;6.88;;;;;;;;;;5073318;28;20608;-62
2021/11/06 08:18:05;;;;;;;12.48;7.88;;;;;;;;;;5073057;28;20183;-63
2021/11/06 08:20:31;;;;;;;13.25;8.18;;;;;;;;;;5073219;28;20025;-63
2021/11/06 08:23:00;;;;;;;9.55;6.57;;;;;;;;;;5055005;28;20135;-63
2021/11/06 08:25:25;;;;;;;12.15;7.55;;;;;;;;;;5073039;28;20024;-63
2021/11/06 08:27:53;;;;;;;9.60;6.43;;;;;;;;;;5054815;28;20150;-63
2021/11/06 08:30:19;;;;;;;13.15;9.05;;;;;;;;;;5072773;28;20033;-63
2021/11/06 08:32:45;;;;;;;12.00;7.25;;;;;;;;;;5054604;28;20408;-63
2021/11/06 08:35:11;;;;;;;9.73;7.00;;;;;;;;;;5072702;28;20067;-62
2021/11/06 08:37:40;;;;;;;12.80;8.45;;;;;;;;;;5072931;28;20117;-63
2021/11/06 08:40:06;;;;;;;12.50;8.95;;;;;;;;;;5053790;28;20051;-63
2021/11/06 08:42:32;;;;;;;16.77;9.48;;;;;;;;;;5073004;28;20025;-62
2021/11/06 08:44:58;;;;;;;11.50;7.13;;;;;;;;;;5073121;28;20046;-62
2021/11/06 08:47:24;;;;;;;9.73;7.22;;;;;;;;;;5055680;28;20111;-62
2021/11/06 08:49:51;;;;;;;11.55;8.23;;;;;;;;;;5073532;28;20040;-62
2021/11/06 08:52:20;;;;;;;14.82;8.52;;;;;;;;;;5073327;28;20040;-62
2021/11/06 08:54:49;;;;;;;13.18;7.25;;;;;;;;;;5072780;28;20037;-62
2021/11/06 08:57:21;;;;;;;9.35;7.13;;;;;;;;;;5073464;28;20507;-62
2021/11/06 08:59:49;;;;;;;13.75;7.53;;;;;;;;;;5073555;28;20086;-62
2021/11/06 09:02:17;;;;;;;10.35;6.40;;;;;;;;;;5073317;28;20537;-62
2021/11/06 09:04:44;;;;;;;10.23;7.65;;;;;;;;;;5073333;28;20044;-62
2021/11/06 09:07:10;;;;;;;9.93;7.45;;;;;;;;;;5055163;28;20032;-62
2021/11/06 09:09:36;;;;;;;10.70;7.35;;;;;;;;;;5072924;28;20037;-62
2021/11/06 09:12:04;;;;;;;8.98;7.47;;;;;;;;;;5073111;28;20020;-62
2021/11/06 09:14:30;;;;;;;11.52;7.22;;;;;;;;;;5072624;28;20037;-62
2021/11/06 09:16:55;;;;;;;9.45;5.95;;;;;;;;;;5070675;28;20515;-63
2021/11/06 09:19:21;;;;;;;10.50;6.18;;;;;;;;;;5070450;28;20044;-62
2021/11/06 09:21:46;;;;;;;11.07;6.40;;;;;;;;;;5070490;28;20106;-62
2021/11/06 09:24:13;;;;;;;8.57;6.03;;;;;;;;;;5070751;28;20072;-62
2021/11/06 09:26:40;;;;;;;10.55;6.95;;;;;;;;;;5069560;28;20040;-62
2021/11/06 09:29:07;;;;;;;8.65;6.68;;;;;;;;;;5070513;28;20041;-62
2021/11/06 09:31:33;;;;;;;9.30;6.28;;;;;;;;;;5069695;28;20036;-63
2021/11/06 09:33:59;;;;;;;9.55;6.22;;;;;;;;;;5069686;28;20045;-63
2021/11/06 09:36:25;;;;;;;9.27;5.97;;;;;;;;;;5069726;28;20034;-62
2021/11/06 09:38:52;;;;;;;8.23;5.60;;;;;;;;;;5057248;28;20080;-63
2021/11/06 09:41:18;;;;;;;9.68;6.35;;;;;;;;;;5070365;28;20399;-62
2021/11/06 09:43:45;;;;;;;7.82;4.95;;;;;;;;;;5070617;28;20044;-61
2021/11/06 09:46:10;;;;;;;9.48;5.85;;;;;;;;;;5070585;28;20060;-62
2021/11/06 09:48:37;;;;;;;8.00;4.05;;;;;;;;;;5071193;28;20067;-61
2021/11/06 09:51:03;;;;;;;6.22;4.45;;;;;;;;;;5070584;28;20035;-61
2021/11/06 09:53:32;;;;;;;4.93;3.58;;;;;;;;;;5061327;28;20032;-61
2021/11/06 09:55:58;;;;;;;4.95;3.78;;;;;;;;;;5059222;28;20024;-61
2021/11/06 09:58:24;;;;;;;5.88;4.72;;;;;;;;;;5068943;28;20051;-61
2021/11/06 10:00:50;;;;;;;5.25;4.35;;;;;;;;;;5070305;28;20036;-61
2021/11/06 10:03:16;;;;;;;7.90;4.57;;;;;;;;;;5070880;28;20284;-61
2021/11/06 10:05:52;;;;;;;6.22;4.43;;;;;;;;;;5070397;28;20032;-61
2021/11/06 10:08:22;;;;;;;6.55;4.30;;;;;;;;;;5070763;28;20072;-61
2021/11/06 10:10:50;;;;;;;5.97;3.47;;;;;;;;;;5070559;28;20020;-61
2021/11/06 10:13:16;;;;;;;5.57;4.43;;;;;;;;;;5071085;28;20281;-61
2021/11/06 10:15:51;;;;;;;5.10;4.03;;;;;;;;;;5070366;28;20037;-61
2021/11/06 10:18:18;;;;;;;4.30;3.70;;;;;;;;;;5070522;28;20102;-61
2021/11/06 10:20:45;;;;;;;3.47;3.20;;;;;;;;;;5070462;28;20114;-61
2021/11/06 10:23:10;;;;;;;4.78;4.00;;;;;;;;;;5070259;28;20086;-61
2021/11/06 10:25:37;;;;;;;5.40;4.20;;;;;;;;;;5069784;28;20068;-61
2021/11/06 10:28:04;;;;;;;5.72;4.45;;;;;;;;;;5070054;28;20036;-61
2021/11/06 10:30:36;;;;;;;4.22;3.72;;;;;;;;;;5069544;28;20041;-61
2021/11/06 10:33:03;;;;;;;4.72;3.53;;;;;;;;;;5070207;28;20058;-61
2021/11/06 10:35:31;;;;;;;6.07;3.55;;;;;;;;;;5069655;28;20483;-61
2021/11/06 10:38:17;;;;;;;4.72;2.92;;;;;;;;;;5069388;28;20469;-61
2021/11/06 10:40:55;;;;;;;5.53;2.97;;;;;;;;;;5069560;28;20040;-61
2021/11/06 10:43:22;;;;;;;4.53;4.05;;;;;;;;;;5070046;28;20044;-61
2021/11/06 10:45:49;;;;;;;5.63;3.72;;;;;;;;;;5069925;28;20043;-61
2021/11/06 10:48:16;;;;;;;3.85;2.72;;;;;;;;;;5070321;28;20044;-61
2021/11/06 10:50:58;;;;;;;4.40;3.35;;;;;;;;;;5069978;28;20060;-61
2021/11/06 10:53:30;;;;;;;3.70;3.08;;;;;;;;;;5061639;28;20064;-61
2021/11/06 10:55:56;;;;;;;3.42;3.03;;;;;;;;;;5066629;28;20064;-61
2021/11/06 10:58:24;;;;;;;3.95;2.90;;;;;;;;;;5069571;28;20056;-62
2021/11/06 11:00:54;;;;;;;6.05;4.03;;;;;;;;;;5069212;28;20049;-61
2021/11/06 11:03:25;;;;;;;5.97;3.67;;;;;;;;;;5072935;28;20131;-67
2021/11/06 11:05:51;;;;;;;3.05;2.00;;;;;;;;;;5069495;28;20037;-61
2021/11/06 11:08:17;;;;;;;1.92;1.38;;;;;;;;;;5073345;28;20032;-61
2021/11/06 11:10:43;;;;;;;6.75;3.88;;;;;;;;;;5055659;28;20110;-61
2021/11/06 11:13:13;;;;;;;5.70;3.92;;;;;;;;;;5073437;28;20559;-61
2021/11/06 11:15:39;;;;;;;4.63;3.47;;;;;;;;;;5073302;28;20377;-61
2021/11/06 11:18:05;;;;;;;5.97;3.33;;;;;;;;;;5073410;28;20502;-61
2021/11/06 11:20:32;;;;;;;6.68;2.83;;;;;;;;;;5073371;28;20032;-61
2021/11/06 11:23:07;;;;;;;4.07;3.05;;;;;;;;;;5073096;28;20041;-61
2021/11/06 11:25:34;;;;;;;5.03;2.80;;;;;;;;;;5073132;28;20391;-61
2021/11/06 11:28:00;;;;;;;3.80;2.83;;;;;;;;;;5073299;28;20115;-62
2021/11/06 11:30:27;;;;;;;5.45;3.45;;;;;;;;;;5039279;28;20064;-61
2021/11/06 11:32:52;;;;;;;3.78;3.00;;;;;;;;;;5053126;28;20029;-61
2021/11/06 11:35:18;;;;;;;4.45;2.90;;;;;;;;;;5055129;28;20037;-61
2021/11/06 11:37:43;;;;;;;4.15;2.65;;;;;;;;;;5061416;28;20838;-61
2021/11/06 11:40:09;;;;;;;4.80;2.67;;;;;;;;;;5072115;28;20031;-61
2021/11/06 11:42:35;;;;;;;3.55;2.97;;;;;;;;;;5072136;28;20039;-61
2021/11/06 11:45:06;;;;;;;4.07;2.58;;;;;;;;;;5071903;28;20465;-61
2021/11/06 11:47:34;;;;;;;4.47;2.92;;;;;;;;;;5071737;28;20036;-61
2021/11/06 11:50:02;;;;;;;3.28;2.58;;;;;;;;;;5072593;28;20460;-61
2021/11/06 11:52:29;;;;;;;3.00;2.53;;;;;;;;;;5071700;28;20036;-61
2021/11/06 11:54:57;;;;;;;3.65;2.28;;;;;;;;;;5071761;28;20084;-61
2021/11/06 11:57:23;;;;;;;4.03;3.33;;;;;;;;;;5054440;28;20059;-61
2021/11/06 11:59:49;;;;;;;6.47;3.75;;;;;;;;;;5072464;28;20090;-61
2021/11/06 12:02:26;;;;;;;2.88;2.65;;;;;;;;;;5072373;28;20067;-61
2021/11/06 12:05:10;;;;;;;5.05;3.28;;;;;;;;;;5071644;28;20143;-61
2021/11/06 12:07:37;;;;;;;4.95;4.03;;;;;;;;;;5070979;28;20048;-66
2021/11/06 12:10:21;;;;;;;4.68;2.97;;;;;;;;;;5072019;28;20094;-66
2021/11/06 12:12:46;;;;;;;3.63;3.00;;;;;;;;;;5071006;28;20445;-65
2021/11/06 12:15:12;;;;;;;3.10;2.80;;;;;;;;;;5070974;28;20024;-66
2021/11/06 12:17:39;;;;;;;2.50;2.28;;;;;;;;;;5070673;28;20048;-66
2021/11/06 12:20:22;;;;;;;2.72;2.40;;;;;;;;;;5072289;28;20028;-65
2021/11/06 12:22:48;;;;;;;4.85;2.80;;;;;;;;;;5072284;28;20049;-66
2021/11/06 12:25:18;;;;;;;2.72;2.53;;;;;;;;;;5053693;28;20043;-66
2021/11/06 12:27:51;;;;;;;2.88;2.67;;;;;;;;;;5072167;28;20036;-66
2021/11/06 12:30:24;;;;;;;3.05;2.75;;;;;;;;;;5072025;28;20047;-66
2021/11/06 12:32:49;;;;;;;6.90;2.88;;;;;;;;;;5071990;28;20033;-66
2021/11/06 12:35:19;;;;;;;3.97;2.38;;;;;;;;;;5071922;28;20468;-66
2021/11/06 12:37:49;;;;;;;5.00;3.05;;;;;;;;;;5071323;28;20098;-66
2021/11/06 12:40:15;;;;;;;4.15;2.78;;;;;;;;;;5053917;28;20040;-66
2021/11/06 12:42:41;;;;;;;4.22;2.92;;;;;;;;;;5071869;28;20455;-66
2021/11/06 12:45:12;;;;;;;3.92;3.28;;;;;;;;;;5071730;28;20044;-66
2021/11/06 12:47:58;;;;;;;4.32;3.30;;;;;;;;;;5071392;28;20033;-66
2021/11/06 12:50:24;;;;;;;3.30;2.72;;;;;;;;;;5060301;28;20035;-66
2021/11/06 12:52:49;;;;;;;11.02;6.55;;;;;;;;;;5056553;28;20025;-66
2021/11/06 12:55:15;;;;;;;5.10;3.33;;;;;;;;;;5058872;28;20105;-66
2021/11/06 12:57:43;;;;;;;7.20;4.07;;;;;;;;;;5058939;28;20055;-66
2021/11/06 13:00:08;;;;;;;4.47;3.13;;;;;;;;;;5038887;28;20036;-66
2021/11/06 13:02:44;;;;;;;4.75;3.30;;;;;;;;;;5061005;28;20024;-66
2021/11/06 13:05:10;;;;;;;3.92;3.38;;;;;;;;;;5057130;28;20033;-66
2021/11/06 13:07:35;;;;;;;4.10;2.95;;;;;;;;;;5042316;28;20028;-66
2021/11/06 13:10:14;;;;;;;4.82;3.58;;;;;;;;;;5061328;28;20130;-66
2021/11/06 13:12:40;;;;;;;4.57;3.78;;;;;;;;;;5059933;28;20120;-66
2021/11/06 13:15:06;;;;;;;8.48;4.22;;;;;;;;;;5059785;28;20075;-66
2021/11/06 13:17:33;;;;;;;6.38;4.05;;;;;;;;;;5041937;28;20033;-66
2021/11/06 13:20:04;;;;;;;6.22;3.78;;;;;;;;;;5043220;28;20119;-66
2021/11/06 13:22:30;;;;;;;6.47;3.70;;;;;;;;;;5059986;28;20119;-66
2021/11/06 13:24:55;;;;;;;6.55;3.78;;;;;;;;;;5059711;28;20103;-66
2021/11/06 13:27:50;;;;;;;5.30;3.67;;;;;;;;;;5060901;28;20444;-66
2021/11/06 13:30:17;;;;;;;6.13;3.78;;;;;;;;;;5039563;28;20037;-65
2021/11/06 13:32:58;;;;;;;3.83;3.25;;;;;;;;;;5060889;28;20024;-64
2021/11/06 13:35:25;;;;;;;4.32;3.85;;;;;;;;;;5056880;28;20033;-66
2021/11/06 13:38:09;;;;;;;9.07;4.55;;;;;;;;;;5063658;28;20048;-66
2021/11/06 13:40:49;;;;;;;7.60;4.20;;;;;;;;;;5067262;28;20036;-66
2021/11/06 13:43:21;;;;;;;4.43;4.00;;;;;;;;;;5067605;28;20154;-66
2021/11/06 13:46:04;;;;;;;6.18;4.38;;;;;;;;;;5069600;28;20059;-66
2021/11/06 13:48:32;;;;;;;8.75;5.32;;;;;;;;;;5069357;28;20021;-66
2021/11/06 13:51:10;;;;;;;6.00;4.55;;;;;;;;;;5069721;28;20064;-66
2021/11/06 13:53:37;;;;;;;4.78;4.13;;;;;;;;;;5069673;28;20029;-66
2021/11/06 13:56:02;;;;;;;4.45;3.83;;;;;;;;;;5069514;28;20029;-66
2021/11/06 13:58:28;;;;;;;8.63;4.63;;;;;;;;;;5069570;28;20039;-66
2021/11/06 14:00:54;;;;;;;7.20;4.35;;;;;;;;;;5069654;28;20491;-66
2021/11/06 14:03:21;;;;;;;8.73;4.55;;;;;;;;;;5067056;28;20043;-66
2021/11/06 14:05:48;;;;;;;10.35;5.25;;;;;;;;;;5069834;28;20032;-66
2021/11/06 14:08:14;;;;;;;10.27;5.60;;;;;;;;;;5070515;28;20471;-66
2021/11/06 14:10:40;;;;;;;7.13;4.82;;;;;;;;;;5070136;28;20028;-66
2021/11/06 14:13:06;;;;;;;4.93;4.40;;;;;;;;;;5070050;28;20122;-66
2021/11/06 14:15:33;;;;;;;6.57;4.65;;;;;;;;;;5070041;28;20119;-66
2021/11/06 14:18:01;;;;;;;5.47;4.32;;;;;;;;;;5069885;28;20040;-66
2021/11/06 14:20:38;;;;;;;5.63;4.10;;;;;;;;;;5070306;28;20127;-63
2021/11/06 14:23:04;;;;;;;6.80;5.18;;;;;;;;;;5070203;28;20053;-63
2021/11/06 14:25:30;;;;;;;6.45;4.25;;;;;;;;;;5070156;28;20032;-64
2021/11/06 14:28:05;;;;;;;8.60;5.20;;;;;;;;;;5070114;28;20469;-64
2021/11/06 14:30:31;;;;;;;5.55;5.03;;;;;;;;;;5070173;28;20040;-67
2021/11/06 14:32:57;;;;;;;7.70;4.28;;;;;;;;;;5070178;28;20102;-65
2021/11/06 14:35:33;;;;;;;5.70;4.22;;;;;;;;;;5070229;28;20392;-66
2021/11/06 14:37:59;;;;;;;5.47;4.07;;;;;;;;;;5054453;28;20052;-65